sensor_id;sensor_type;location;lat;lon;timestamp;pressure;altitude;pressure_sealevel;temperature;humidity
3544;BME280;1786;52.870;9.578;2023-01-29T00:01:50;101780.72;;;10.46;56.28
3544;BME280;1786;52.870;9.578;2023-01-29T00:04:17;101777.97;;;10.06;56.15
3544;BME280;1786;52.870;9.578;2023-01-29T00:06:44;101778.84;;;10.07;56.37
3544;BME280;1786;52.870;9.578;2023-01-29T00:09:11;101779.88;;;10.03;56.79
3544;BME280;1786;52.870;9.578;2023-01-29T00:11:39;101782.41;;;10.06;56.95
3544;BME280;1786;52.870;9.578;2023-01-29T00:14:05;101785.22;;;10.64;54.97
3544;BME280;1786;52.870;9.578;2023-01-29T00:16:32;101787.53;;;10.51;55.32
3544;BME280;1786;52.870;9.578;2023-01-29T00:19:00;101781.94;;;9.96;56.39
3544;BME280;1786;52.870;9.578;2023-01-29T00:21:27;101795.09;;;9.75;57.31
3544;BME280;1786;52.870;9.578;2023-01-29T00:23:56;101781.13;;;10.36;55.47
3544;BME280;1786;52.870;9.578;2023-01-29T00:26:24;101778.28;;;9.78;57.33
3544;BME280;1786;52.870;9.578;2023-01-29T00:28:51;101780.06;;;9.56;57.81
3544;BME280;1786;52.870;9.578;2023-01-29T00:31:20;101779.44;;;9.71;57.33
3544;BME280;1786;52.870;9.578;2023-01-29T00:33:47;101768.06;;;9.25;58.72
3544;BME280;1786;52.870;9.578;2023-01-29T00:36:16;101772.75;;;9.40;58.52
3544;BME280;1786;52.870;9.578;2023-01-29T00:38:44;101767.16;;;9.48;58.46
3544;BME280;1786;52.870;9.578;2023-01-29T00:41:31;101773.31;;;9.70;57.40
3544;BME280;1786;52.870;9.578;2023-01-29T00:44:20;101766.59;;;9.62;57.63
3544;BME280;1786;52.870;9.578;2023-01-29T00:47:06;101760.22;;;9.23;58.33
3544;BME280;1786;52.870;9.578;2023-01-29T00:49:58;101764.41;;;9.73;57.44
3544;BME280;1786;52.870;9.578;2023-01-29T00:52:26;101764.72;;;9.43;57.63
3544;BME280;1786;52.870;9.578;2023-01-29T00:54:56;101765.41;;;10.33;55.75
3544;BME280;1786;52.870;9.578;2023-01-29T00:57:26;101754.31;;;11.04;54.06
3544;BME280;1786;52.870;9.578;2023-01-29T01:00:00;101748.78;;;10.31;55.74
3544;BME280;1786;52.870;9.578;2023-01-29T01:02:32;101732.47;;;9.79;56.57
3544;BME280;1786;52.870;9.578;2023-01-29T01:05:24;101733.63;;;9.72;56.64
3544;BME280;1786;52.870;9.578;2023-01-29T01:08:07;101733.88;;;9.88;56.76
3544;BME280;1786;52.870;9.578;2023-01-29T01:11:04;101736.03;;;9.34;57.47
3544;BME280;1786;52.870;9.578;2023-01-29T01:13:41;101728.69;;;9.42;57.52
3544;BME280;1786;52.870;9.578;2023-01-29T01:16:16;101728.63;;;9.66;57.05
3544;BME280;1786;52.870;9.578;2023-01-29T01:18:47;101733.84;;;9.45;57.56
3544;BME280;1786;52.870;9.578;2023-01-29T01:21:37;101734.31;;;9.77;56.89
3544;BME280;1786;52.870;9.578;2023-01-29T01:24:05;101739.19;;;9.66;56.89
3544;BME280;1786;52.870;9.578;2023-01-29T01:26:34;101737.44;;;9.65;56.57
3544;BME280;1786;52.870;9.578;2023-01-29T01:29:01;101748.84;;;9.87;56.09
3544;BME280;1786;52.870;9.578;2023-01-29T01:31:31;101747.84;;;9.90;56.66
3544;BME280;1786;52.870;9.578;2023-01-29T01:34:28;101747.47;;;9.99;56.26
3544;BME280;1786;52.870;9.578;2023-01-29T01:37:03;101753.34;;;9.85;56.54
3544;BME280;1786;52.870;9.578;2023-01-29T01:39:32;101761.16;;;10.50;55.63
3544;BME280;1786;52.870;9.578;2023-01-29T01:42:04;101767.56;;;11.04;54.60
3544;BME280;1786;52.870;9.578;2023-01-29T01:45:00;101764.75;;;10.28;56.07
3544;BME280;1786;52.870;9.578;2023-01-29T01:47:44;101769.72;;;10.36;56.07
3544;BME280;1786;52.870;9.578;2023-01-29T01:50:27;101778.28;;;10.41;55.87
3544;BME280;1786;52.870;9.578;2023-01-29T01:53:05;101770.69;;;10.54;56.06
3544;BME280;1786;52.870;9.578;2023-01-29T01:55:43;101766.84;;;10.40;55.60
3544;BME280;1786;52.870;9.578;2023-01-29T01:58:16;101767.88;;;9.95;56.90
3544;BME280;1786;52.870;9.578;2023-01-29T02:00:49;101772.56;;;10.09;56.45
3544;BME280;1786;52.870;9.578;2023-01-29T02:03:19;101778.75;;;10.51;55.64
3544;BME280;1786;52.870;9.578;2023-01-29T02:06:06;101781.13;;;10.96;54.61
3544;BME280;1786;52.870;9.578;2023-01-29T02:09:08;101775.94;;;10.74;55.34
3544;BME280;1786;52.870;9.578;2023-01-29T02:11:55;101780.06;;;10.40;56.27
3544;BME280;1786;52.870;9.578;2023-01-29T02:14:26;101770.56;;;10.36;56.36
3544;BME280;1786;52.870;9.578;2023-01-29T02:16:53;101768.75;;;10.57;55.48
3544;BME280;1786;52.870;9.578;2023-01-29T02:25:21;101777.00;;;10.09;57.12
3544;BME280;1786;52.870;9.578;2023-01-29T02:28:08;101765.81;;;10.45;56.16
3544;BME280;1786;52.870;9.578;2023-01-29T02:36:55;101762.97;;;10.49;55.74
3544;BME280;1786;52.870;9.578;2023-01-29T02:39:37;101755.41;;;10.60;55.16
3544;BME280;1786;52.870;9.578;2023-01-29T02:42:22;101753.47;;;10.03;56.59
3544;BME280;1786;52.870;9.578;2023-01-29T02:44:59;101746.66;;;10.39;55.70
3544;BME280;1786;52.870;9.578;2023-01-29T02:47:36;101742.38;;;9.52;57.59
3544;BME280;1786;52.870;9.578;2023-01-29T02:50:22;101735.16;;;9.12;59.12
3544;BME280;1786;52.870;9.578;2023-01-29T02:53:01;101740.97;;;9.43;58.38
3544;BME280;1786;52.870;9.578;2023-01-29T02:55:42;101742.66;;;9.44;57.76
3544;BME280;1786;52.870;9.578;2023-01-29T02:58:33;101747.72;;;9.50;57.63
3544;BME280;1786;52.870;9.578;2023-01-29T03:01:12;101727.34;;;9.32;58.17
3544;BME280;1786;52.870;9.578;2023-01-29T03:03:48;101719.19;;;9.60;57.57
3544;BME280;1786;52.870;9.578;2023-01-29T03:06:27;101731.25;;;10.08;56.32
3544;BME280;1786;52.870;9.578;2023-01-29T03:09:43;101728.19;;;9.97;57.13
3544;BME280;1786;52.870;9.578;2023-01-29T03:12:19;101718.91;;;8.77;59.38
3544;BME280;1786;52.870;9.578;2023-01-29T03:15:18;101718.97;;;8.99;59.32
3544;BME280;1786;52.870;9.578;2023-01-29T03:18:11;101709.91;;;8.59;60.48
3544;BME280;1786;52.870;9.578;2023-01-29T03:20:49;101702.31;;;9.20;59.12
3544;BME280;1786;52.870;9.578;2023-01-29T03:23:24;101699.75;;;10.04;56.91
3544;BME280;1786;52.870;9.578;2023-01-29T03:26:17;101707.25;;;9.72;57.83
3544;BME280;1786;52.870;9.578;2023-01-29T03:29:09;101703.50;;;9.35;58.43
3544;BME280;1786;52.870;9.578;2023-01-29T03:32:10;101698.09;;;9.81;57.84
3544;BME280;1786;52.870;9.578;2023-01-29T03:34:48;101697.44;;;9.96;56.76
3544;BME280;1786;52.870;9.578;2023-01-29T03:37:23;101680.75;;;10.36;56.50
3544;BME280;1786;52.870;9.578;2023-01-29T03:39:58;101677.06;;;10.59;55.41
3544;BME280;1786;52.870;9.578;2023-01-29T03:42:57;101674.00;;;10.29;56.09
3544;BME280;1786;52.870;9.578;2023-01-29T03:45:39;101670.03;;;10.39;56.06
3544;BME280;1786;52.870;9.578;2023-01-29T03:48:15;101656.53;;;10.25;56.00
3544;BME280;1786;52.870;9.578;2023-01-29T03:51:26;101646.66;;;10.30;55.80
3544;BME280;1786;52.870;9.578;2023-01-29T03:57:18;101645.56;;;9.74;57.06
3544;BME280;1786;52.870;9.578;2023-01-29T04:00:13;101636.50;;;9.60;56.88
3544;BME280;1786;52.870;9.578;2023-01-29T04:09:10;101634.13;;;9.94;56.26
3544;BME280;1786;52.870;9.578;2023-01-29T04:11:45;101626.22;;;9.94;56.16
3544;BME280;1786;52.870;9.578;2023-01-29T04:14:14;101636.97;;;9.49;57.14
3544;BME280;1786;52.870;9.578;2023-01-29T04:16:47;101633.59;;;10.07;56.38
3544;BME280;1786;52.870;9.578;2023-01-29T04:19:38;101631.31;;;9.38;57.68
3544;BME280;1786;52.870;9.578;2023-01-29T04:22:14;101623.31;;;9.60;57.33
3544;BME280;1786;52.870;9.578;2023-01-29T04:24:49;101622.63;;;10.16;56.04
3544;BME280;1786;52.870;9.578;2023-01-29T04:28:03;101616.41;;;10.17;55.83
3544;BME280;1786;52.870;9.578;2023-01-29T04:30:53;101605.84;;;10.37;56.07
3544;BME280;1786;52.870;9.578;2023-01-29T04:36:20;101615.88;;;9.69;56.86
3544;BME280;1786;52.870;9.578;2023-01-29T04:47:49;101610.34;;;9.13;58.69
3544;BME280;1786;52.870;9.578;2023-01-29T04:50:26;101617.94;;;8.98;59.33
3544;BME280;1786;52.870;9.578;2023-01-29T04:55:42;101610.59;;;9.06;58.71
3544;BME280;1786;52.870;9.578;2023-01-29T04:58:30;101610.44;;;9.09;58.81
3544;BME280;1786;52.870;9.578;2023-01-29T05:00:58;101604.44;;;9.28;58.91
3544;BME280;1786;52.870;9.578;2023-01-29T05:03:30;101605.84;;;9.15;58.92
3544;BME280;1786;52.870;9.578;2023-01-29T05:05:59;101598.75;;;8.73;59.62
3544;BME280;1786;52.870;9.578;2023-01-29T05:08:28;101596.69;;;9.03;58.99
3544;BME280;1786;52.870;9.578;2023-01-29T05:10:58;101599.69;;;8.94;59.67
3544;BME280;1786;52.870;9.578;2023-01-29T05:13:25;101607.03;;;9.07;58.87
3544;BME280;1786;52.870;9.578;2023-01-29T05:18:41;101612.81;;;8.95;59.66
3544;BME280;1786;52.870;9.578;2023-01-29T05:21:09;101620.25;;;8.62;60.50
3544;BME280;1786;52.870;9.578;2023-01-29T05:23:39;101634.13;;;9.11;59.15
3544;BME280;1786;52.870;9.578;2023-01-29T05:26:05;101627.88;;;9.14;58.86
3544;BME280;1786;52.870;9.578;2023-01-29T05:28:32;101639.66;;;8.83;59.75
3544;BME280;1786;52.870;9.578;2023-01-29T05:30:58;101638.56;;;9.10;58.72
3544;BME280;1786;52.870;9.578;2023-01-29T05:33:27;101639.00;;;9.42;58.05
3544;BME280;1786;52.870;9.578;2023-01-29T05:35:55;101633.47;;;9.48;57.73
3544;BME280;1786;52.870;9.578;2023-01-29T05:38:23;101630.25;;;9.62;57.65
3544;BME280;1786;52.870;9.578;2023-01-29T05:40:51;101624.13;;;9.62;57.15
3544;BME280;1786;52.870;9.578;2023-01-29T05:43:22;101626.38;;;9.71;57.00
3544;BME280;1786;52.870;9.578;2023-01-29T05:45:54;101621.34;;;9.65;57.47
3544;BME280;1786;52.870;9.578;2023-01-29T05:48:22;101620.97;;;9.74;57.03
3544;BME280;1786;52.870;9.578;2023-01-29T05:50:49;101624.59;;;9.71;57.73
3544;BME280;1786;52.870;9.578;2023-01-29T05:53:19;101613.41;;;9.65;57.98
3544;BME280;1786;52.870;9.578;2023-01-29T05:55:47;101597.91;;;12.95;51.58
3544;BME280;1786;52.870;9.578;2023-01-29T05:58:13;101601.28;;;10.41;55.72
3544;BME280;1786;52.870;9.578;2023-01-29T06:00:41;101618.34;;;10.13;56.40
3544;BME280;1786;52.870;9.578;2023-01-29T06:03:07;101624.47;;;12.30;52.54
3544;BME280;1786;52.870;9.578;2023-01-29T06:05:38;101622.06;;;12.26;51.96
3544;BME280;1786;52.870;9.578;2023-01-29T06:08:05;101617.50;;;11.08;54.37
3544;BME280;1786;52.870;9.578;2023-01-29T06:11:27;101615.03;;;10.86;54.36
3544;BME280;1786;52.870;9.578;2023-01-29T06:13:56;101621.78;;;12.64;50.85
3544;BME280;1786;52.870;9.578;2023-01-29T06:16:23;101610.69;;;10.47;55.67
3544;BME280;1786;52.870;9.578;2023-01-29T06:18:50;101618.94;;;10.00;57.07
3544;BME280;1786;52.870;9.578;2023-01-29T06:21:19;101619.66;;;13.48;50.43
3544;BME280;1786;52.870;9.578;2023-01-29T06:23:46;101607.63;;;10.75;54.94
3544;BME280;1786;52.870;9.578;2023-01-29T06:26:23;101602.00;;;11.00;54.85
3544;BME280;1786;52.870;9.578;2023-01-29T06:28:50;101605.69;;;10.40;56.36
3544;BME280;1786;52.870;9.578;2023-01-29T06:31:23;101623.84;;;10.09;56.95
3544;BME280;1786;52.870;9.578;2023-01-29T06:34:20;101633.44;;;9.70;58.12
3544;BME280;1786;52.870;9.578;2023-01-29T06:36:48;101632.47;;;10.12;57.22
3544;BME280;1786;52.870;9.578;2023-01-29T06:39:15;101637.53;;;10.37;55.71
3544;BME280;1786;52.870;9.578;2023-01-29T06:41:45;101641.22;;;9.94;57.31
3544;BME280;1786;52.870;9.578;2023-01-29T06:44:12;101642.56;;;10.03;57.08
3544;BME280;1786;52.870;9.578;2023-01-29T06:46:42;101634.84;;;10.39;56.83
3544;BME280;1786;52.870;9.578;2023-01-29T06:49:08;101624.03;;;10.63;56.29
3544;BME280;1786;52.870;9.578;2023-01-29T06:51:38;101631.44;;;10.56;56.54
3544;BME280;1786;52.870;9.578;2023-01-29T06:54:05;101635.88;;;10.35;57.07
3544;BME280;1786;52.870;9.578;2023-01-29T06:56:33;101607.75;;;10.72;56.45
3544;BME280;1786;52.870;9.578;2023-01-29T06:59:00;101596.13;;;11.30;53.93
3544;BME280;1786;52.870;9.578;2023-01-29T07:01:30;101605.34;;;10.29;56.69
3544;BME280;1786;52.870;9.578;2023-01-29T07:04:02;101613.41;;;9.65;58.23
3544;BME280;1786;52.870;9.578;2023-01-29T07:06:32;101608.75;;;10.50;57.46
3544;BME280;1786;52.870;9.578;2023-01-29T07:08:59;101610.81;;;12.38;51.36
3544;BME280;1786;52.870;9.578;2023-01-29T07:11:27;101596.13;;;10.17;57.15
3544;BME280;1786;52.870;9.578;2023-01-29T07:13:54;101602.09;;;11.85;53.28
3544;BME280;1786;52.870;9.578;2023-01-29T07:16:24;101611.47;;;10.87;55.50
3544;BME280;1786;52.870;9.578;2023-01-29T07:18:57;101615.56;;;10.37;56.66
3544;BME280;1786;52.870;9.578;2023-01-29T07:21:36;101605.66;;;10.22;57.44
3544;BME280;1786;52.870;9.578;2023-01-29T07:24:08;101594.38;;;9.58;58.88
3544;BME280;1786;52.870;9.578;2023-01-29T07:26:35;101592.81;;;9.32;59.84
3544;BME280;1786;52.870;9.578;2023-01-29T07:29:05;101581.88;;;9.21;60.70
3544;BME280;1786;52.870;9.578;2023-01-29T07:31:32;101581.97;;;9.60;59.82
3544;BME280;1786;52.870;9.578;2023-01-29T07:34:04;101582.50;;;9.68;60.07
3544;BME280;1786;52.870;9.578;2023-01-29T07:36:31;101570.72;;;10.15;58.63
3544;BME280;1786;52.870;9.578;2023-01-29T07:38:58;101578.13;;;9.67;60.13
3544;BME280;1786;52.870;9.578;2023-01-29T07:41:28;101582.84;;;9.40;61.06
3544;BME280;1786;52.870;9.578;2023-01-29T07:44:00;101572.97;;;10.62;58.58
3544;BME280;1786;52.870;9.578;2023-01-29T07:46:31;101572.56;;;10.33;59.22
3544;BME280;1786;52.870;9.578;2023-01-29T07:49:00;101574.00;;;10.01;60.41
3544;BME280;1786;52.870;9.578;2023-01-29T07:51:28;101562.19;;;9.50;61.73
3544;BME280;1786;52.870;9.578;2023-01-29T07:53:59;101564.97;;;9.04;63.43
3544;BME280;1786;52.870;9.578;2023-01-29T07:56:28;101567.31;;;8.90;64.31
3544;BME280;1786;52.870;9.578;2023-01-29T07:58:59;101554.84;;;8.26;66.30
3544;BME280;1786;52.870;9.578;2023-01-29T08:01:27;101567.81;;;8.78;65.25
3544;BME280;1786;52.870;9.578;2023-01-29T08:03:55;101559.91;;;8.78;65.58
3544;BME280;1786;52.870;9.578;2023-01-29T08:06:22;101569.69;;;8.74;65.37
3544;BME280;1786;52.870;9.578;2023-01-29T08:08:53;101571.63;;;8.93;65.11
3544;BME280;1786;52.870;9.578;2023-01-29T08:11:24;101565.41;;;8.50;66.35
3544;BME280;1786;52.870;9.578;2023-01-29T08:13:52;101564.13;;;8.82;65.80
3544;BME280;1786;52.870;9.578;2023-01-29T08:16:20;101563.41;;;9.00;64.90
3544;BME280;1786;52.870;9.578;2023-01-29T08:18:49;101555.94;;;9.52;63.60
3544;BME280;1786;52.870;9.578;2023-01-29T08:21:16;101553.78;;;9.81;63.05
3544;BME280;1786;52.870;9.578;2023-01-29T08:23:44;101549.44;;;9.39;63.53
3544;BME280;1786;52.870;9.578;2023-01-29T08:26:13;101540.06;;;9.73;62.95
3544;BME280;1786;52.870;9.578;2023-01-29T08:28:48;101543.78;;;9.28;63.28
3544;BME280;1786;52.870;9.578;2023-01-29T08:31:16;101540.56;;;8.99;64.47
3544;BME280;1786;52.870;9.578;2023-01-29T08:33:48;101545.22;;;9.15;64.78
3544;BME280;1786;52.870;9.578;2023-01-29T08:36:20;101552.75;;;9.44;63.07
3544;BME280;1786;52.870;9.578;2023-01-29T08:38:54;101550.50;;;9.56;63.24
3544;BME280;1786;52.870;9.578;2023-01-29T08:41:22;101559.31;;;9.14;64.05
3544;BME280;1786;52.870;9.578;2023-01-29T08:44:05;101556.56;;;9.17;64.64
3544;BME280;1786;52.870;9.578;2023-01-29T08:46:38;101553.69;;;9.43;63.71
3544;BME280;1786;52.870;9.578;2023-01-29T08:49:12;101546.00;;;9.37;64.03
3544;BME280;1786;52.870;9.578;2023-01-29T08:51:42;101542.50;;;9.57;63.17
3544;BME280;1786;52.870;9.578;2023-01-29T08:54:18;101551.75;;;9.47;63.89
3544;BME280;1786;52.870;9.578;2023-01-29T08:57:03;101535.34;;;9.61;63.81
3544;BME280;1786;52.870;9.578;2023-01-29T08:59:37;101532.72;;;9.20;64.23
3544;BME280;1786;52.870;9.578;2023-01-29T09:02:21;101531.13;;;9.57;64.01
3544;BME280;1786;52.870;9.578;2023-01-29T09:04:57;101521.75;;;9.29;64.19
3544;BME280;1786;52.870;9.578;2023-01-29T09:07:36;101526.72;;;10.34;62.62
3544;BME280;1786;52.870;9.578;2023-01-29T09:10:17;101527.34;;;9.83;63.19
3544;BME280;1786;52.870;9.578;2023-01-29T09:12:50;101525.19;;;10.10;61.69
3544;BME280;1786;52.870;9.578;2023-01-29T09:15:26;101529.28;;;10.55;61.03
3544;BME280;1786;52.870;9.578;2023-01-29T09:17:53;101529.06;;;10.40;61.32
3544;BME280;1786;52.870;9.578;2023-01-29T09:20:40;101529.50;;;10.87;60.26
3544;BME280;1786;52.870;9.578;2023-01-29T09:23:22;101511.53;;;10.93;60.33
3544;BME280;1786;52.870;9.578;2023-01-29T09:26:00;101510.91;;;11.05;59.83
3544;BME280;1786;52.870;9.578;2023-01-29T09:28:34;101518.22;;;10.47;60.96
3544;BME280;1786;52.870;9.578;2023-01-29T09:31:07;101510.44;;;10.44;60.44
3544;BME280;1786;52.870;9.578;2023-01-29T09:33:37;101509.94;;;10.35;60.30
3544;BME280;1786;52.870;9.578;2023-01-29T09:36:32;101515.66;;;10.26;60.70
3544;BME280;1786;52.870;9.578;2023-01-29T09:39:03;101525.72;;;10.73;59.59
3544;BME280;1786;52.870;9.578;2023-01-29T09:45:20;101516.84;;;10.57;59.30
3544;BME280;1786;52.870;9.578;2023-01-29T09:48:07;101522.34;;;10.14;60.17
3544;BME280;1786;52.870;9.578;2023-01-29T09:50:43;101522.19;;;10.55;59.58
3544;BME280;1786;52.870;9.578;2023-01-29T09:53:45;101529.94;;;11.82;55.97
3544;BME280;1786;52.870;9.578;2023-01-29T09:56:24;101520.34;;;12.44;55.05
3544;BME280;1786;52.870;9.578;2023-01-29T09:58:58;101512.53;;;10.91;57.89
3544;BME280;1786;52.870;9.578;2023-01-29T10:01:34;101509.44;;;11.17;57.41
3544;BME280;1786;52.870;9.578;2023-01-29T10:07:19;101495.81;;;10.73;57.87
3544;BME280;1786;52.870;9.578;2023-01-29T10:15:57;101494.19;;;11.05;57.51
3544;BME280;1786;52.870;9.578;2023-01-29T10:21:51;101484.44;;;12.23;54.96
3544;BME280;1786;52.870;9.578;2023-01-29T10:24:40;101472.75;;;13.62;51.51
3544;BME280;1786;52.870;9.578;2023-01-29T10:27:15;101476.16;;;13.93;50.70
3544;BME280;1786;52.870;9.578;2023-01-29T10:29:50;101472.19;;;13.42;51.70
3544;BME280;1786;52.870;9.578;2023-01-29T10:32:28;101464.69;;;12.90;53.27
3544;BME280;1786;52.870;9.578;2023-01-29T10:35:16;101462.50;;;13.84;50.75
3544;BME280;1786;52.870;9.578;2023-01-29T10:37:53;101462.97;;;13.34;51.44
3544;BME280;1786;52.870;9.578;2023-01-29T10:40:37;101457.47;;;13.80;51.35
3544;BME280;1786;52.870;9.578;2023-01-29T10:45:51;101454.75;;;13.38;51.59
3544;BME280;1786;52.870;9.578;2023-01-29T10:48:39;101451.75;;;11.75;54.91
3544;BME280;1786;52.870;9.578;2023-01-29T11:01:58;101425.59;;;10.50;57.75
3544;BME280;1786;52.870;9.578;2023-01-29T11:04:30;101414.91;;;11.21;56.79
3544;BME280;1786;52.870;9.578;2023-01-29T11:07:01;101418.59;;;11.01;57.14
3544;BME280;1786;52.870;9.578;2023-01-29T11:09:44;101417.34;;;11.08;57.26
3544;BME280;1786;52.870;9.578;2023-01-29T11:12:29;101401.69;;;11.21;57.19
3544;BME280;1786;52.870;9.578;2023-01-29T11:15:15;101394.84;;;11.50;56.49
3544;BME280;1786;52.870;9.578;2023-01-29T11:18:12;101390.03;;;11.41;57.17
3544;BME280;1786;52.870;9.578;2023-01-29T11:21:00;101383.19;;;11.03;57.08
3544;BME280;1786;52.870;9.578;2023-01-29T11:26:27;101390.19;;;11.22;57.02
3544;BME280;1786;52.870;9.578;2023-01-29T11:29:03;101376.09;;;11.21;57.10
3544;BME280;1786;52.870;9.578;2023-01-29T11:31:39;101372.28;;;11.43;56.57
3544;BME280;1786;52.870;9.578;2023-01-29T11:34:19;101359.91;;;11.27;57.00
3544;BME280;1786;52.870;9.578;2023-01-29T11:37:01;101364.75;;;10.69;58.17
3544;BME280;1786;52.870;9.578;2023-01-29T11:43:28;101354.41;;;10.81;57.60
3544;BME280;1786;52.870;9.578;2023-01-29T11:46:12;101353.44;;;10.82;57.92
3544;BME280;1786;52.870;9.578;2023-01-29T11:48:50;101357.28;;;11.10;57.45
3544;BME280;1786;52.870;9.578;2023-01-29T11:51:28;101344.69;;;10.47;58.11
3544;BME280;1786;52.870;9.578;2023-01-29T11:54:04;101355.06;;;10.15;59.23
3544;BME280;1786;52.870;9.578;2023-01-29T11:56:42;101355.34;;;10.28;59.48
3544;BME280;1786;52.870;9.578;2023-01-29T12:02:27;101362.63;;;10.93;58.42
3544;BME280;1786;52.870;9.578;2023-01-29T12:05:17;101343.84;;;10.47;59.26
3544;BME280;1786;52.870;9.578;2023-01-29T12:07:49;101340.34;;;11.14;57.89
3544;BME280;1786;52.870;9.578;2023-01-29T12:10:40;101341.06;;;11.65;56.74
3544;BME280;1786;52.870;9.578;2023-01-29T12:15:56;101304.69;;;11.21;57.40
3544;BME280;1786;52.870;9.578;2023-01-29T12:18:51;101310.38;;;10.80;57.02
3544;BME280;1786;52.870;9.578;2023-01-29T12:21:35;101304.59;;;11.23;57.20
3544;BME280;1786;52.870;9.578;2023-01-29T12:27:20;101290.38;;;10.42;58.28
3544;BME280;1786;52.870;9.578;2023-01-29T12:30:16;101295.50;;;10.62;58.45
3544;BME280;1786;52.870;9.578;2023-01-29T12:32:53;101281.31;;;11.30;56.42
3544;BME280;1786;52.870;9.578;2023-01-29T12:35:32;101288.28;;;10.99;56.99
3544;BME280;1786;52.870;9.578;2023-01-29T12:38:12;101290.81;;;11.00;56.55
3544;BME280;1786;52.870;9.578;2023-01-29T12:40:46;101282.69;;;10.88;57.32
3544;BME280;1786;52.870;9.578;2023-01-29T12:43:49;101277.69;;;10.99;56.18
3544;BME280;1786;52.870;9.578;2023-01-29T12:46:27;101269.91;;;10.96;57.09
3544;BME280;1786;52.870;9.578;2023-01-29T12:49:02;101264.22;;;11.19;56.65
3544;BME280;1786;52.870;9.578;2023-01-29T12:51:37;101267.47;;;11.24;56.58
3544;BME280;1786;52.870;9.578;2023-01-29T12:54:18;101259.97;;;11.33;56.52
3544;BME280;1786;52.870;9.578;2023-01-29T12:56:50;101259.72;;;11.21;56.57
3544;BME280;1786;52.870;9.578;2023-01-29T12:59:47;101261.56;;;11.51;56.00
3544;BME280;1786;52.870;9.578;2023-01-29T13:02:28;101256.97;;;11.39;55.97
3544;BME280;1786;52.870;9.578;2023-01-29T13:05:15;101255.00;;;11.58;55.29
3544;BME280;1786;52.870;9.578;2023-01-29T13:08:00;101254.44;;;10.88;56.92
3544;BME280;1786;52.870;9.578;2023-01-29T13:10:40;101246.25;;;10.44;57.67
3544;BME280;1786;52.870;9.578;2023-01-29T13:13:23;101246.31;;;11.24;56.78
3544;BME280;1786;52.870;9.578;2023-01-29T13:15:59;101241.13;;;11.69;55.83
3544;BME280;1786;52.870;9.578;2023-01-29T13:21:03;101231.31;;;10.76;57.49
3544;BME280;1786;52.870;9.578;2023-01-29T13:23:42;101229.91;;;11.34;56.66
3544;BME280;1786;52.870;9.578;2023-01-29T13:26:18;101232.38;;;11.05;57.03
3544;BME280;1786;52.870;9.578;2023-01-29T13:28:46;101228.44;;;10.80;57.44
3544;BME280;1786;52.870;9.578;2023-01-29T13:31:22;101226.00;;;11.09;57.01
3544;BME280;1786;52.870;9.578;2023-01-29T13:34:13;101232.28;;;10.42;59.09
3544;BME280;1786;52.870;9.578;2023-01-29T13:36:49;101218.03;;;10.77;58.05
3544;BME280;1786;52.870;9.578;2023-01-29T13:39:34;101212.44;;;11.15;57.69
3544;BME280;1786;52.870;9.578;2023-01-29T13:45:07;101201.56;;;11.36;57.69
3544;BME280;1786;52.870;9.578;2023-01-29T13:50:48;101200.41;;;11.25;58.08
3544;BME280;1786;52.870;9.578;2023-01-29T13:53:22;101200.72;;;10.88;58.79
3544;BME280;1786;52.870;9.578;2023-01-29T13:55:50;101205.19;;;11.03;58.32
3544;BME280;1786;52.870;9.578;2023-01-29T14:01:07;101182.50;;;9.82;60.70
3544;BME280;1786;52.870;9.578;2023-01-29T14:03:53;101182.25;;;10.21;60.35
3544;BME280;1786;52.870;9.578;2023-01-29T14:06:39;101183.16;;;10.37;59.89
3544;BME280;1786;52.870;9.578;2023-01-29T14:09:30;101183.09;;;10.04;61.25
3544;BME280;1786;52.870;9.578;2023-01-29T14:12:01;101179.81;;;10.83;59.67
3544;BME280;1786;52.870;9.578;2023-01-29T14:17:18;101170.88;;;10.70;59.47
3544;BME280;1786;52.870;9.578;2023-01-29T14:19:53;101164.56;;;10.56;60.27
3544;BME280;1786;52.870;9.578;2023-01-29T14:22:30;101161.00;;;10.23;60.99
3544;BME280;1786;52.870;9.578;2023-01-29T14:25:04;101154.69;;;9.74;61.85
3544;BME280;1786;52.870;9.578;2023-01-29T14:27:36;101151.28;;;9.72;62.54
3544;BME280;1786;52.870;9.578;2023-01-29T14:30:15;101153.19;;;10.21;61.05
3544;BME280;1786;52.870;9.578;2023-01-29T14:32:50;101154.00;;;10.72;60.04
3544;BME280;1786;52.870;9.578;2023-01-29T14:35:25;101146.28;;;10.36;61.03
3544;BME280;1786;52.870;9.578;2023-01-29T14:38:04;101148.78;;;10.55;60.31
3544;BME280;1786;52.870;9.578;2023-01-29T14:41:00;101137.53;;;10.18;61.79
3544;BME280;1786;52.870;9.578;2023-01-29T14:43:29;101138.03;;;10.58;60.67
3544;BME280;1786;52.870;9.578;2023-01-29T14:46:43;101124.97;;;9.88;61.84
3544;BME280;1786;52.870;9.578;2023-01-29T14:49:10;101127.63;;;10.22;61.28
3544;BME280;1786;52.870;9.578;2023-01-29T14:51:44;101128.03;;;10.31;61.38
3544;BME280;1786;52.870;9.578;2023-01-29T14:54:27;101131.88;;;10.42;60.78
3544;BME280;1786;52.870;9.578;2023-01-29T14:57:11;101127.25;;;10.12;60.87
3544;BME280;1786;52.870;9.578;2023-01-29T15:00:14;101113.50;;;9.54;62.25
3544;BME280;1786;52.870;9.578;2023-01-29T15:02:51;101104.78;;;9.70;62.55
3544;BME280;1786;52.870;9.578;2023-01-29T15:05:37;101111.31;;;9.80;62.17
3544;BME280;1786;52.870;9.578;2023-01-29T15:11:41;101107.88;;;10.78;59.82
3544;BME280;1786;52.870;9.578;2023-01-29T15:14:38;101106.88;;;9.98;61.18
3544;BME280;1786;52.870;9.578;2023-01-29T15:19:59;101113.13;;;10.13;61.40
3544;BME280;1786;52.870;9.578;2023-01-29T15:22:41;101103.84;;;10.71;60.01
3544;BME280;1786;52.870;9.578;2023-01-29T15:25:16;101106.41;;;10.88;60.15
3544;BME280;1786;52.870;9.578;2023-01-29T15:27:57;101097.44;;;10.43;60.63
3544;BME280;1786;52.870;9.578;2023-01-29T15:30:33;101093.28;;;10.06;62.14
3544;BME280;1786;52.870;9.578;2023-01-29T15:33:12;101086.00;;;9.93;62.86
3544;BME280;1786;52.870;9.578;2023-01-29T15:35:46;101083.41;;;9.41;64.43
3544;BME280;1786;52.870;9.578;2023-01-29T15:38:34;101091.31;;;9.59;64.48
3544;BME280;1786;52.870;9.578;2023-01-29T15:43:56;101072.63;;;9.96;63.57
3544;BME280;1786;52.870;9.578;2023-01-29T15:46:29;101072.06;;;10.07;62.71
3544;BME280;1786;52.870;9.578;2023-01-29T15:49:16;101065.88;;;9.40;64.33
3544;BME280;1786;52.870;9.578;2023-01-29T15:51:57;101061.06;;;9.14;65.45
3544;BME280;1786;52.870;9.578;2023-01-29T15:54:30;101057.97;;;9.23;65.59